createdAt,value
2022-12-31T00:00:50.207Z,74.22
2022-12-31T00:03:16.751Z,72.88
2022-12-31T00:05:43.390Z,73.63
2022-12-31T00:08:09.787Z,73.84
2022-12-31T00:10:36.275Z,73.93
2022-12-31T00:13:02.674Z,74.45
2022-12-31T00:15:29.117Z,73.84
2022-12-31T00:17:55.562Z,72.15
2022-12-31T00:20:22.060Z,72.51
2022-12-31T00:22:48.448Z,72.45
2022-12-31T00:25:14.872Z,73.11
2022-12-31T00:27:41.342Z,71.59
2022-12-31T00:30:07.933Z,71.92
2022-12-31T00:32:34.291Z,71.82
2022-12-31T00:35:00.839Z,72.02
2022-12-31T00:37:27.326Z,72.88
2022-12-31T00:39:53.784Z,71.75
2022-12-31T00:42:20.313Z,70.98
2022-12-31T00:44:46.817Z,70.67
2022-12-31T00:47:13.650Z,71.15
2022-12-31T00:49:40.089Z,70.92
2022-12-31T00:52:06.491Z,71.21
2022-12-31T00:54:32.874Z,71.60
2022-12-31T00:56:59.371Z,70.79
2022-12-31T00:59:25.804Z,71.37
2022-12-31T01:01:52.354Z,71.80
2022-12-31T01:04:18.899Z,71.25
2022-12-31T01:06:45.359Z,70.74
2022-12-31T01:09:12.046Z,69.77
2022-12-31T01:11:41.205Z,70.91
2022-12-31T01:14:07.633Z,71.17
2022-12-31T01:16:38.281Z,70.80
2022-12-31T01:19:07.732Z,72.44
2022-12-31T01:21:35.439Z,72.30
2022-12-31T01:24:01.914Z,70.88
2022-12-31T01:26:30.663Z,70.71
2022-12-31T01:28:57.039Z,71.01
2022-12-31T01:31:24.491Z,71.62
2022-12-31T01:33:51.305Z,72.02
2022-12-31T01:36:26.104Z,72.13
2022-12-31T01:39:00.421Z,71.57
2022-12-31T01:41:26.896Z,71.59
2022-12-31T01:43:53.393Z,71.97
2022-12-31T01:46:19.866Z,71.51
2022-12-31T01:48:46.282Z,70.90
2022-12-31T01:51:12.614Z,71.24
2022-12-31T01:53:41.036Z,71.09
2022-12-31T01:56:07.457Z,71.20
2022-12-31T02:01:19.967Z,72.19
2022-12-31T02:03:47.417Z,72.41
2022-12-31T02:06:13.895Z,71.01
2022-12-31T02:08:42.314Z,70.69
2022-12-31T02:11:08.972Z,70.90
2022-12-31T02:13:35.409Z,71.55
2022-12-31T02:16:01.838Z,72.27
2022-12-31T02:18:28.438Z,72.33
2022-12-31T02:20:54.807Z,71.99
2022-12-31T02:23:21.348Z,72.55
2022-12-31T02:25:47.741Z,72.51
2022-12-31T02:28:14.207Z,71.68
2022-12-31T02:30:40.580Z,71.57
2022-12-31T02:33:07.053Z,70.56
2022-12-31T02:35:33.515Z,70.73
2022-12-31T02:37:59.906Z,70.82
2022-12-31T02:40:26.347Z,70.57
2022-12-31T02:42:55.629Z,71.38
2022-12-31T02:45:22.278Z,70.41
2022-12-31T02:47:48.754Z,71.12
2022-12-31T02:50:15.127Z,71.54
2022-12-31T02:52:41.571Z,70.87
2022-12-31T02:55:17.868Z,71.03
2022-12-31T02:57:44.308Z,71.32
2022-12-31T03:00:10.740Z,70.21
2022-12-31T03:02:37.171Z,69.17
2022-12-31T03:05:03.596Z,68.80
2022-12-31T03:07:29.983Z,69.96
2022-12-31T03:09:56.393Z,69.44
2022-12-31T03:12:22.859Z,69.39
2022-12-31T03:14:49.285Z,68.76
2022-12-31T03:17:15.773Z,70.20
2022-12-31T03:19:42.251Z,69.70
2022-12-31T03:22:08.718Z,70.05
2022-12-31T03:24:36.472Z,70.50
2022-12-31T03:27:02.942Z,70.68
2022-12-31T03:29:29.335Z,69.56
2022-12-31T03:31:55.718Z,69.03
2022-12-31T03:34:22.094Z,70.20
2022-12-31T03:36:48.526Z,69.54
2022-12-31T03:39:14.979Z,68.97
2022-12-31T03:41:41.419Z,69.42
2022-12-31T03:44:07.819Z,70.10
2022-12-31T03:46:34.230Z,70.65
2022-12-31T03:49:00.635Z,69.71
2022-12-31T03:51:27.029Z,68.73
2022-12-31T03:53:53.431Z,69.72
2022-12-31T03:56:19.845Z,69.49
2022-12-31T03:58:48.962Z,70.21
2022-12-31T04:01:15.516Z,69.68
2022-12-31T04:03:41.985Z,69.87
2022-12-31T04:06:08.347Z,69.67
2022-12-31T04:08:34.821Z,70.54
2022-12-31T04:11:01.199Z,70.64
2022-12-31T04:13:27.620Z,70.01
2022-12-31T04:15:54.043Z,69.25
2022-12-31T04:18:20.460Z,69.59
2022-12-31T04:20:46.882Z,70.33
2022-12-31T04:23:13.308Z,70.98
2022-12-31T04:25:39.713Z,70.67
2022-12-31T04:28:06.131Z,71.14
2022-12-31T04:30:32.495Z,71.06
2022-12-31T04:32:58.895Z,71.42
2022-12-31T04:35:25.308Z,70.64
2022-12-31T04:37:51.771Z,71.27
2022-12-31T04:40:18.253Z,70.23
2022-12-31T04:42:44.650Z,70.18
2022-12-31T04:45:11.106Z,70.55
2022-12-31T04:47:37.497Z,70.43
2022-12-31T04:50:06.897Z,71.50
2022-12-31T04:52:38.589Z,71.38
2022-12-31T04:57:59.232Z,71.60
2022-12-31T05:00:25.709Z,71.41
2022-12-31T05:02:52.122Z,71.47
2022-12-31T05:05:18.639Z,71.20
2022-12-31T05:07:45.066Z,71.27
2022-12-31T05:10:11.484Z,71.11
2022-12-31T05:12:37.890Z,71.55
2022-12-31T05:15:04.373Z,71.61
2022-12-31T05:17:30.847Z,72.19
2022-12-31T05:19:57.235Z,71.34
2022-12-31T05:22:41.842Z,71.77
2022-12-31T05:25:08.268Z,71.79
2022-12-31T05:27:37.913Z,72.74
2022-12-31T05:30:04.345Z,71.66
2022-12-31T05:32:30.716Z,71.41
2022-12-31T05:34:57.105Z,71.87
2022-12-31T05:37:23.592Z,71.44
2022-12-31T05:39:49.981Z,70.86
2022-12-31T05:42:16.401Z,70.46
2022-12-31T05:44:42.869Z,69.98
2022-12-31T05:47:09.274Z,69.71
2022-12-31T05:49:35.719Z,69.48
2022-12-31T05:52:02.128Z,69.93
2022-12-31T05:54:28.554Z,68.54
2022-12-31T05:56:55.024Z,68.59
2022-12-31T05:59:21.514Z,69.77
2022-12-31T06:01:49.403Z,69.57
2022-12-31T06:04:15.839Z,69.55
2022-12-31T06:06:44.163Z,69.95
2022-12-31T06:09:10.631Z,69.86
2022-12-31T06:11:37.039Z,68.80
2022-12-31T06:14:03.401Z,69.26
2022-12-31T06:16:29.872Z,69.54
2022-12-31T06:18:56.251Z,69.95
2022-12-31T06:21:22.751Z,70.56
2022-12-31T06:23:49.183Z,71.43
2022-12-31T06:26:15.667Z,71.25
2022-12-31T06:28:42.120Z,70.98
2022-12-31T06:31:08.592Z,70.69
2022-12-31T06:33:35.009Z,70.70
2022-12-31T06:36:01.444Z,69.73
2022-12-31T06:38:27.860Z,69.80
2022-12-31T06:40:55.250Z,69.43
2022-12-31T06:43:21.734Z,70.49
2022-12-31T06:45:48.275Z,71.07
2022-12-31T06:48:14.707Z,71.94
2022-12-31T06:50:41.175Z,71.52
2022-12-31T06:53:07.602Z,71.68
2022-12-31T06:55:34.033Z,71.80
2022-12-31T06:58:00.476Z,71.44
2022-12-31T07:00:26.956Z,71.50
2022-12-31T07:02:53.524Z,71.94
2022-12-31T07:05:19.967Z,71.21
2022-12-31T07:07:46.368Z,71.28
2022-12-31T07:10:12.817Z,71.71
2022-12-31T07:12:39.282Z,71.98
2022-12-31T07:15:05.689Z,71.69
2022-12-31T07:17:32.034Z,71.68
2022-12-31T07:19:58.559Z,71.42
2022-12-31T07:22:25.017Z,71.86
2022-12-31T07:24:51.514Z,71.66
2022-12-31T07:27:18.006Z,71.31
2022-12-31T07:29:44.402Z,71.37
2022-12-31T07:32:10.807Z,71.65
2022-12-31T07:34:37.234Z,72.47
2022-12-31T07:37:24.168Z,72.48
2022-12-31T07:39:50.511Z,71.87
2022-12-31T07:42:17.943Z,72.81
2022-12-31T07:44:44.314Z,73.18
2022-12-31T07:47:10.843Z,71.49
2022-12-31T07:49:37.353Z,70.10
2022-12-31T07:52:03.690Z,69.91
2022-12-31T07:54:30.045Z,70.62
2022-12-31T07:56:56.413Z,70.89
2022-12-31T07:59:24.558Z,69.67
2022-12-31T08:01:51.314Z,69.58
2022-12-31T08:04:17.818Z,69.50
2022-12-31T08:06:44.157Z,69.00
2022-12-31T08:09:10.482Z,69.57
2022-12-31T08:11:37.021Z,69.46
2022-12-31T08:14:03.366Z,71.16
2022-12-31T08:16:29.723Z,70.58
2022-12-31T08:18:56.111Z,71.97
2022-12-31T08:21:29.533Z,68.70
2022-12-31T08:23:59.213Z,67.99
2022-12-31T08:26:25.534Z,68.06
2022-12-31T08:28:51.975Z,67.68
2022-12-31T08:31:20.813Z,68.82
2022-12-31T08:33:51.707Z,69.01
2022-12-31T08:36:18.064Z,69.52
2022-12-31T08:38:44.409Z,69.55
2022-12-31T08:41:10.768Z,70.27
2022-12-31T08:43:42.387Z,70.27
2022-12-31T08:46:08.757Z,69.94
2022-12-31T08:48:35.151Z,70.46
2022-12-31T08:51:01.678Z,70.76
2022-12-31T08:53:28.124Z,70.64
2022-12-31T08:55:54.571Z,70.03
2022-12-31T08:58:21.040Z,70.96
2022-12-31T09:00:47.512Z,71.14
2022-12-31T09:03:13.994Z,69.93
2022-12-31T09:05:40.461Z,70.05
2022-12-31T09:08:06.977Z,70.07
2022-12-31T09:10:38.160Z,68.39
2022-12-31T09:13:04.737Z,68.33
2022-12-31T09:15:31.190Z,67.79
2022-12-31T09:17:57.719Z,69.08
2022-12-31T09:20:24.131Z,71.81
2022-12-31T09:22:50.611Z,71.25
2022-12-31T09:25:17.107Z,71.44
2022-12-31T09:27:51.185Z,71.57
2022-12-31T09:30:20.511Z,73.12
2022-12-31T09:32:47.032Z,72.73
2022-12-31T09:35:13.556Z,71.61
2022-12-31T09:37:41.274Z,73.56
2022-12-31T09:40:08.725Z,69.91
2022-12-31T09:45:19.460Z,69.25
2022-12-31T09:47:45.918Z,68.31
2022-12-31T09:50:14.364Z,69.00
2022-12-31T09:52:40.724Z,68.73
2022-12-31T09:55:07.236Z,69.23
2022-12-31T09:57:33.690Z,69.66
2022-12-31T10:00:00.537Z,69.13
2022-12-31T10:02:31.754Z,68.58
2022-12-31T10:04:59.358Z,68.37
2022-12-31T10:07:25.883Z,68.09
2022-12-31T10:12:43.159Z,67.80
2022-12-31T10:15:09.647Z,67.74
2022-12-31T10:17:36.054Z,69.25
2022-12-31T10:20:02.517Z,69.09
2022-12-31T10:22:28.933Z,68.69
2022-12-31T10:24:55.391Z,68.13
2022-12-31T10:27:21.852Z,68.52
2022-12-31T10:29:48.313Z,68.42
2022-12-31T10:32:18.372Z,68.99
2022-12-31T10:34:44.764Z,69.41
2022-12-31T10:37:11.128Z,68.54
2022-12-31T10:39:37.574Z,68.06
2022-12-31T10:42:04.058Z,68.71
2022-12-31T10:44:30.491Z,68.82
2022-12-31T10:46:56.975Z,69.07
2022-12-31T10:49:23.327Z,68.42
2022-12-31T10:51:49.856Z,67.93
2022-12-31T10:54:16.327Z,67.52
2022-12-31T10:56:42.752Z,65.26
2022-12-31T10:59:09.243Z,65.77
2022-12-31T11:01:35.756Z,66.30
2022-12-31T11:04:05.398Z,66.99
2022-12-31T11:06:31.861Z,66.06
2022-12-31T11:08:59.366Z,63.52
2022-12-31T11:11:25.836Z,62.54
2022-12-31T11:13:52.373Z,61.61
2022-12-31T11:16:18.881Z,61.60
2022-12-31T11:18:45.472Z,61.43
2022-12-31T11:21:11.959Z,60.76
2022-12-31T11:23:50.235Z,60.64
2022-12-31T11:26:16.808Z,60.49
2022-12-31T11:28:43.253Z,61.12
2022-12-31T11:31:09.749Z,61.62
2022-12-31T11:33:36.207Z,61.25
2022-12-31T11:36:02.657Z,60.45
2022-12-31T11:38:29.170Z,60.89
2022-12-31T11:40:55.602Z,61.37
2022-12-31T11:43:22.052Z,60.59
2022-12-31T11:45:50.689Z,60.10
2022-12-31T11:48:30.320Z,60.18
2022-12-31T11:50:57.659Z,60.24
2022-12-31T11:53:24.128Z,59.81
2022-12-31T11:55:50.635Z,59.30
2022-12-31T11:58:17.119Z,59.77
2022-12-31T12:00:43.656Z,60.21
2022-12-31T12:03:10.158Z,61.60
2022-12-31T12:05:50.262Z,60.49
2022-12-31T12:08:16.818Z,59.01
2022-12-31T12:10:43.308Z,59.51
2022-12-31T12:13:09.788Z,59.04
2022-12-31T12:15:36.188Z,59.69
2022-12-31T12:18:02.988Z,60.33
2022-12-31T12:20:29.848Z,61.53
2022-12-31T12:22:56.436Z,62.67
2022-12-31T12:25:22.937Z,63.11
2022-12-31T12:27:50.717Z,62.85
2022-12-31T12:30:17.152Z,62.12
2022-12-31T12:32:43.626Z,62.94
2022-12-31T12:35:10.092Z,63.62
2022-12-31T12:37:36.565Z,63.12
2022-12-31T12:40:03.027Z,62.82
2022-12-31T12:42:29.458Z,62.70
2022-12-31T12:44:58.583Z,62.18
2022-12-31T12:47:25.061Z,63.05
2022-12-31T12:49:51.506Z,63.40
2022-12-31T12:52:17.948Z,62.57
2022-12-31T12:54:44.386Z,62.26
2022-12-31T12:57:10.853Z,60.03
2022-12-31T12:59:37.293Z,59.73
2022-12-31T13:02:03.841Z,60.51
2022-12-31T13:04:35.180Z,59.80
2022-12-31T13:07:07.374Z,59.03
2022-12-31T13:09:33.760Z,58.68
2022-12-31T13:12:07.140Z,59.20
2022-12-31T13:14:34.112Z,59.91
2022-12-31T13:17:01.599Z,59.15
2022-12-31T13:22:08.431Z,58.80
2022-12-31T13:24:34.932Z,57.93
2022-12-31T13:27:01.434Z,57.42
2022-12-31T13:29:28.135Z,57.20
2022-12-31T13:31:54.745Z,57.38
2022-12-31T13:34:21.107Z,57.39
2022-12-31T13:36:52.557Z,56.67
2022-12-31T13:39:18.969Z,56.40
2022-12-31T13:41:48.431Z,57.09
2022-12-31T13:44:14.851Z,55.94
2022-12-31T13:46:41.283Z,56.85
2022-12-31T13:49:07.927Z,56.72
2022-12-31T13:51:36.668Z,56.39
2022-12-31T13:54:03.115Z,56.87
2022-12-31T13:56:29.469Z,56.55
2022-12-31T13:58:56.283Z,57.02
2022-12-31T14:01:23.107Z,57.19
2022-12-31T14:03:49.683Z,59.67
2022-12-31T14:06:16.303Z,60.46
2022-12-31T14:08:42.942Z,62.42
2022-12-31T14:11:09.734Z,62.23
2022-12-31T14:13:36.311Z,61.98
2022-12-31T14:16:02.765Z,61.79
2022-12-31T14:21:19.395Z,63.36
2022-12-31T14:23:45.803Z,63.75
2022-12-31T14:26:12.183Z,64.47
2022-12-31T14:28:44.704Z,62.33
2022-12-31T14:31:13.122Z,61.89
2022-12-31T14:33:39.513Z,62.31
2022-12-31T14:36:10.426Z,62.92
2022-12-31T14:38:37.245Z,63.05
2022-12-31T14:41:03.641Z,63.02
2022-12-31T14:43:30.037Z,59.11
2022-12-31T14:45:56.431Z,60.71
2022-12-31T14:48:22.931Z,62.29
2022-12-31T14:50:49.388Z,62.76
2022-12-31T14:53:24.750Z,63.81
2022-12-31T14:55:51.124Z,65.11
2022-12-31T14:58:27.551Z,65.28
2022-12-31T15:00:54.616Z,66.05
2022-12-31T15:03:21.170Z,65.61
2022-12-31T15:05:47.729Z,66.58
2022-12-31T15:08:14.230Z,66.46
2022-12-31T15:10:40.817Z,65.37
2022-12-31T15:13:07.179Z,62.77
2022-12-31T15:15:33.798Z,64.95
2022-12-31T15:18:00.214Z,65.87
2022-12-31T15:20:26.579Z,64.74
2022-12-31T15:22:54.005Z,64.51
2022-12-31T15:25:39.991Z,64.22
2022-12-31T15:28:09.698Z,64.46
2022-12-31T15:30:36.711Z,64.41
2022-12-31T15:33:03.205Z,64.38
2022-12-31T15:35:30.142Z,63.61
2022-12-31T15:37:56.532Z,64.47
2022-12-31T15:40:23.033Z,64.03
2022-12-31T15:42:53.606Z,64.70
2022-12-31T15:45:21.126Z,65.38
2022-12-31T15:47:49.754Z,65.06
2022-12-31T15:50:16.134Z,64.66
2022-12-31T15:52:44.773Z,64.48
2022-12-31T15:55:11.186Z,65.47
2022-12-31T16:00:18.086Z,66.14
2022-12-31T16:02:44.587Z,66.06
2022-12-31T16:05:11.047Z,64.91
2022-12-31T16:07:39.225Z,63.93
2022-12-31T16:10:06.435Z,64.97
2022-12-31T16:12:35.199Z,64.62
2022-12-31T16:15:04.764Z,64.85
2022-12-31T16:17:33.955Z,65.22
2022-12-31T16:20:00.436Z,64.30
2022-12-31T16:22:32.135Z,63.80
2022-12-31T16:30:35.361Z,62.43
2022-12-31T16:33:06.603Z,62.52
2022-12-31T16:35:36.184Z,63.33
2022-12-31T16:38:02.574Z,63.80
2022-12-31T16:40:28.926Z,61.57
2022-12-31T16:42:55.382Z,61.62
2022-12-31T16:45:22.375Z,62.65
2022-12-31T16:47:48.882Z,63.78
2022-12-31T16:50:15.356Z,64.53
2022-12-31T16:52:41.803Z,63.97
2022-12-31T16:55:09.254Z,65.18
2022-12-31T16:57:35.658Z,65.44
2022-12-31T17:00:02.053Z,65.35
2022-12-31T17:02:28.593Z,63.69
2022-12-31T17:04:56.392Z,62.74
2022-12-31T17:07:22.927Z,62.08
2022-12-31T17:09:49.270Z,62.86
2022-12-31T17:12:27.149Z,64.85
2022-12-31T17:14:53.613Z,64.97
2022-12-31T17:17:20.122Z,65.20
2022-12-31T17:19:46.598Z,64.76
2022-12-31T17:22:13.231Z,64.00
2022-12-31T17:24:39.721Z,62.56
2022-12-31T17:27:06.231Z,63.45
2022-12-31T17:29:32.627Z,63.86
2022-12-31T17:31:59.019Z,64.79
2022-12-31T17:34:25.408Z,63.90
2022-12-31T17:36:53.040Z,64.21
2022-12-31T17:39:19.465Z,64.25
2022-12-31T17:41:45.841Z,63.99
2022-12-31T17:44:12.280Z,63.37
2022-12-31T17:46:38.784Z,65.17
2022-12-31T17:49:05.237Z,65.92
2022-12-31T17:51:31.638Z,66.04
2022-12-31T17:53:58.009Z,64.41
2022-12-31T17:56:24.462Z,62.86
2022-12-31T17:58:50.944Z,61.77
2022-12-31T18:01:17.531Z,61.35
2022-12-31T18:03:44.011Z,60.83
2022-12-31T18:06:16.305Z,60.49
2022-12-31T18:08:43.355Z,59.16
2022-12-31T18:11:09.859Z,60.20
2022-12-31T18:13:36.322Z,59.57
2022-12-31T18:16:02.833Z,59.61
2022-12-31T18:18:29.204Z,59.58
2022-12-31T18:20:55.653Z,60.60
2022-12-31T18:23:22.119Z,61.08
2022-12-31T18:25:48.545Z,61.10
2022-12-31T18:28:15.009Z,60.94
2022-12-31T18:30:42.261Z,61.25
2022-12-31T18:33:08.778Z,61.35
2022-12-31T18:36:08.227Z,61.15
2022-12-31T18:38:21.450Z,60.77
2022-12-31T18:40:47.816Z,61.64
2022-12-31T18:43:14.192Z,62.41
2022-12-31T18:48:23.863Z,61.39
2022-12-31T18:50:55.068Z,61.29
2022-12-31T18:53:21.508Z,61.76
2022-12-31T18:55:47.969Z,62.59
2022-12-31T18:58:14.431Z,62.60
2022-12-31T19:00:41.165Z,62.84
2022-12-31T19:03:07.667Z,62.92
2022-12-31T19:05:35.340Z,63.54
2022-12-31T19:08:01.766Z,63.70
2022-12-31T19:10:28.241Z,63.84
2022-12-31T19:12:57.430Z,64.10
2022-12-31T19:15:24.060Z,63.15
2022-12-31T19:17:50.485Z,62.98
2022-12-31T19:20:16.946Z,63.27
2022-12-31T19:22:43.550Z,63.55
2022-12-31T19:25:16.233Z,63.93
2022-12-31T19:27:44.890Z,62.78
2022-12-31T19:32:52.737Z,63.08
2022-12-31T19:35:22.033Z,62.10
2022-12-31T19:37:48.616Z,62.45
2022-12-31T19:40:15.095Z,61.90
2022-12-31T19:42:41.535Z,62.26
2022-12-31T19:45:08.191Z,61.43
2022-12-31T19:47:34.595Z,61.75
2022-12-31T19:50:01.122Z,62.03
2022-12-31T19:52:27.583Z,61.71
2022-12-31T19:54:54.120Z,60.76
2022-12-31T19:57:20.540Z,61.63
2022-12-31T19:59:47.021Z,60.87
2022-12-31T20:02:13.557Z,61.26
2022-12-31T20:04:40.217Z,61.45
2022-12-31T20:07:09.341Z,61.45
2022-12-31T20:09:38.597Z,61.79
2022-12-31T20:12:05.037Z,61.12
2022-12-31T20:14:31.459Z,59.58
2022-12-31T20:16:57.878Z,60.33
2022-12-31T20:19:24.597Z,60.49
2022-12-31T20:21:51.353Z,60.44
2022-12-31T20:24:17.755Z,60.90
2022-12-31T20:26:44.180Z,60.68
2022-12-31T20:29:10.629Z,60.44
2022-12-31T20:31:37.103Z,60.27
2022-12-31T20:34:03.590Z,60.30
2022-12-31T20:36:40.632Z,60.44
2022-12-31T20:39:07.099Z,60.30
2022-12-31T20:41:34.221Z,59.77
2022-12-31T20:44:00.712Z,59.97
2022-12-31T20:46:27.293Z,60.20
2022-12-31T20:48:53.771Z,60.05
2022-12-31T20:51:21.355Z,59.46
2022-12-31T20:53:47.815Z,60.01
2022-12-31T20:56:15.932Z,59.95
2022-12-31T20:58:48.412Z,60.37
2022-12-31T21:01:17.477Z,60.13
2022-12-31T21:06:30.558Z,61.99
2022-12-31T21:08:57.133Z,62.65
2022-12-31T21:11:23.899Z,63.06
2022-12-31T21:13:50.326Z,62.99
2022-12-31T21:16:16.729Z,63.43
2022-12-31T21:18:43.240Z,62.51
2022-12-31T21:21:09.698Z,61.92
2022-12-31T21:26:16.389Z,60.82
2022-12-31T21:28:42.926Z,61.96
2022-12-31T21:31:11.501Z,62.47
2022-12-31T21:33:37.981Z,62.69
2022-12-31T21:36:05.063Z,62.58
2022-12-31T21:38:31.690Z,62.23
2022-12-31T21:40:58.088Z,62.36
2022-12-31T21:43:24.477Z,61.87
2022-12-31T21:45:50.919Z,61.81
2022-12-31T21:48:17.330Z,61.89
2022-12-31T21:50:43.719Z,61.25
2022-12-31T21:53:10.197Z,61.51
2022-12-31T21:55:42.581Z,61.95
2022-12-31T21:58:25.743Z,62.43
2022-12-31T22:00:52.810Z,62.85
2022-12-31T22:03:19.298Z,62.29
2022-12-31T22:05:45.769Z,62.52
2022-12-31T22:08:12.185Z,62.56
2022-12-31T22:10:44.671Z,62.04
2022-12-31T22:13:17.507Z,62.82
2022-12-31T22:15:44.058Z,63.16
2022-12-31T22:18:10.489Z,62.94
2022-12-31T22:20:36.998Z,62.88
2022-12-31T22:23:07.114Z,62.82
2022-12-31T22:25:33.572Z,62.42
2022-12-31T22:28:37.064Z,62.46
2022-12-31T22:30:52.415Z,62.11
2022-12-31T22:33:19.899Z,62.99
2022-12-31T22:35:46.401Z,62.73
2022-12-31T22:38:12.899Z,62.80
2022-12-31T22:40:39.403Z,63.42
2022-12-31T22:43:07.506Z,63.58
2022-12-31T22:45:43.059Z,62.86
2022-12-31T22:48:09.761Z,63.11
2022-12-31T22:50:38.975Z,62.65
2022-12-31T22:53:08.671Z,62.47
2022-12-31T22:55:35.035Z,62.59
2022-12-31T22:58:01.440Z,62.67
2022-12-31T23:03:08.336Z,63.51
2022-12-31T23:05:35.956Z,63.47
2022-12-31T23:08:06.148Z,63.24
2022-12-31T23:10:46.640Z,63.15
2022-12-31T23:13:13.047Z,62.83
2022-12-31T23:15:39.486Z,62.26
2022-12-31T23:18:05.897Z,62.34
2022-12-31T23:20:32.272Z,62.12
2022-12-31T23:22:58.661Z,62.08
2022-12-31T23:25:25.009Z,62.02
2022-12-31T23:27:51.392Z,62.10
2022-12-31T23:30:17.804Z,62.50
2022-12-31T23:35:34.863Z,61.81
2022-12-31T23:43:33.321Z,63.71
2022-12-31T23:45:59.811Z,62.67
2022-12-31T23:48:26.144Z,62.64
2022-12-31T23:50:54.432Z,64.28
2022-12-31T23:53:20.924Z,63.99
2022-12-31T23:55:50.334Z,64.28
2022-12-31T23:58:16.804Z,65.00
